Impacts TAF Board INFO
FOR SITUATIONAL AWARENESS. NOT TO BE USED FOR FLIGHT PLANNING PURPOSES.
IDs:

KPNS - Pensacola Intl, FL, US

Issued at 1124 UTC 20 May 2018
Updated at 1220 UTC 20 May 2018
Potential Impact None Slight Moderate High
Time<<21/01Z 21/02Z 21/03Z 21/04Z 21/05Z 21/06Z 21/07Z 21/08Z 21/09Z 21/10Z 21/11Z 21/12Z 21/13Z>>
Type PRVL PRVL PRVL PRVL PRVL PRVL PRVL PRVL PRVL PRVL PRVL
VIS >6 >6 >6 >6 >6 >6 >6 >6 >6 >6 >6
CIG -- -- -- 250 250 250 250 250 250 250 250
Cover SCT SCT SCT OVC OVC OVC OVC OVC OVC OVC OVC
FltCat VFR VFR VFR VFR VFR VFR VFR VFR VFR VFR VFR
WX SHRA SHRA SHRA -- -- -- -- -- -- -- --
WDir 170 170 170 VRB VRB VRB VRB VRB VRB VRB VRB
WSpd 6 6 6 4 4 4 4 4 4 4 4
WGst -- -- -- -- -- -- -- -- -- -- --

Raw TAF
KPNS 201124Z 2012/2112 VRB03KT P6SM SKC
  FM201500 11006KT P6SM SCT060
  FM201700 13006KT P6SM VCTS SCT035CB SCT060
  TEMPO 2019/2023 VRB15G25KT 3SM TSRA BKN040CB BKN080
  FM210000 17006KT P6SM SHRA SCT080
  FM210400 VRB04KT P6SM OVC250


METAR Board
Radar Display
Forecast Discussion

FOR SITUATIONAL AWARENESS. NOT TO BE USED FOR FLIGHT PLANNING PURPOSES.